sensor_id;sensor_type;location;lat;lon;timestamp;P1;durP1;ratioP1;P2;durP2;ratioP2
75535;SDS011;64119;52.070;20.804;2023-07-31T00:01:50;2.90;;;1.60;;
75535;SDS011;64119;52.070;20.804;2023-07-31T00:04:18;2.80;;;1.70;;
75535;SDS011;64119;52.070;20.804;2023-07-31T00:06:45;2.50;;;1.80;;
75535;SDS011;64119;52.070;20.804;2023-07-31T00:09:13;3.70;;;1.90;;
75535;SDS011;64119;52.070;20.804;2023-07-31T00:11:41;2.50;;;1.80;;
75535;SDS011;64119;52.070;20.804;2023-07-31T00:14:08;4.90;;;2.00;;
75535;SDS011;64119;52.070;20.804;2023-07-31T00:16:37;3.20;;;2.00;;
75535;SDS011;64119;52.070;20.804;2023-07-31T00:19:05;4.70;;;2.00;;
75535;SDS011;64119;52.070;20.804;2023-07-31T00:21:33;2.20;;;1.50;;
75535;SDS011;64119;52.070;20.804;2023-07-31T00:24:00;2.10;;;1.50;;
75535;SDS011;64119;52.070;20.804;2023-07-31T00:26:28;3.20;;;1.90;;
75535;SDS011;64119;52.070;20.804;2023-07-31T00:28:56;2.60;;;1.70;;
75535;SDS011;64119;52.070;20.804;2023-07-31T00:31:24;2.60;;;1.50;;
75535;SDS011;64119;52.070;20.804;2023-07-31T00:33:52;2.50;;;1.70;;
75535;SDS011;64119;52.070;20.804;2023-07-31T00:36:19;3.00;;;1.90;;
75535;SDS011;64119;52.070;20.804;2023-07-31T00:38:48;3.30;;;2.00;;
75535;SDS011;64119;52.070;20.804;2023-07-31T00:41:16;3.10;;;2.00;;
75535;SDS011;64119;52.070;20.804;2023-07-31T00:43:44;2.80;;;1.70;;
75535;SDS011;64119;52.070;20.804;2023-07-31T00:46:12;2.40;;;1.80;;
75535;SDS011;64119;52.070;20.804;2023-07-31T00:48:41;2.90;;;1.80;;
75535;SDS011;64119;52.070;20.804;2023-07-31T00:51:08;2.70;;;2.00;;
75535;SDS011;64119;52.070;20.804;2023-07-31T00:53:36;3.40;;;2.00;;
75535;SDS011;64119;52.070;20.804;2023-07-31T00:56:04;2.70;;;1.70;;
75535;SDS011;64119;52.070;20.804;2023-07-31T00:58:32;3.20;;;2.10;;
75535;SDS011;64119;52.070;20.804;2023-07-31T01:01:00;3.00;;;1.90;;
75535;SDS011;64119;52.070;20.804;2023-07-31T01:03:28;2.40;;;1.90;;
75535;SDS011;64119;52.070;20.804;2023-07-31T01:06:40;2.20;;;1.90;;
75535;SDS011;64119;52.070;20.804;2023-07-31T01:09:08;3.60;;;1.90;;
75535;SDS011;64119;52.070;20.804;2023-07-31T01:11:48;2.50;;;1.80;;
75535;SDS011;64119;52.070;20.804;2023-07-31T01:14:30;2.90;;;1.80;;
75535;SDS011;64119;52.070;20.804;2023-07-31T01:16:58;2.90;;;2.10;;
75535;SDS011;64119;52.070;20.804;2023-07-31T01:19:26;2.90;;;2.20;;
75535;SDS011;64119;52.070;20.804;2023-07-31T01:24:44;3.90;;;2.10;;
75535;SDS011;64119;52.070;20.804;2023-07-31T01:27:23;3.80;;;1.80;;
75535;SDS011;64119;52.070;20.804;2023-07-31T01:32:42;2.10;;;1.60;;
75535;SDS011;64119;52.070;20.804;2023-07-31T01:35:15;2.90;;;2.20;;
75535;SDS011;64119;52.070;20.804;2023-07-31T01:37:43;3.70;;;2.00;;
75535;SDS011;64119;52.070;20.804;2023-07-31T01:42:40;2.90;;;1.90;;
75535;SDS011;64119;52.070;20.804;2023-07-31T01:45:08;3.30;;;2.20;;
75535;SDS011;64119;52.070;20.804;2023-07-31T01:47:36;3.70;;;2.40;;
75535;SDS011;64119;52.070;20.804;2023-07-31T01:50:04;3.80;;;2.90;;
75535;SDS011;64119;52.070;20.804;2023-07-31T01:52:32;3.60;;;2.20;;
75535;SDS011;64119;52.070;20.804;2023-07-31T01:55:00;3.30;;;2.20;;
75535;SDS011;64119;52.070;20.804;2023-07-31T01:57:28;3.20;;;2.00;;
75535;SDS011;64119;52.070;20.804;2023-07-31T01:59:56;3.20;;;2.20;;
75535;SDS011;64119;52.070;20.804;2023-07-31T02:02:24;3.00;;;2.00;;
75535;SDS011;64119;52.070;20.804;2023-07-31T02:04:52;4.10;;;2.40;;
75535;SDS011;64119;52.070;20.804;2023-07-31T02:07:20;4.10;;;2.20;;
75535;SDS011;64119;52.070;20.804;2023-07-31T02:09:48;3.80;;;2.10;;
75535;SDS011;64119;52.070;20.804;2023-07-31T02:12:17;3.60;;;2.10;;
75535;SDS011;64119;52.070;20.804;2023-07-31T02:14:44;3.20;;;2.30;;
75535;SDS011;64119;52.070;20.804;2023-07-31T02:17:12;3.80;;;2.40;;
75535;SDS011;64119;52.070;20.804;2023-07-31T02:19:40;2.90;;;2.20;;
75535;SDS011;64119;52.070;20.804;2023-07-31T02:22:08;3.90;;;2.40;;
75535;SDS011;64119;52.070;20.804;2023-07-31T02:24:36;3.00;;;2.20;;
75535;SDS011;64119;52.070;20.804;2023-07-31T02:27:03;3.30;;;2.20;;
75535;SDS011;64119;52.070;20.804;2023-07-31T02:29:31;4.10;;;2.40;;
75535;SDS011;64119;52.070;20.804;2023-07-31T02:31:59;3.80;;;2.40;;
75535;SDS011;64119;52.070;20.804;2023-07-31T02:34:27;3.70;;;2.40;;
75535;SDS011;64119;52.070;20.804;2023-07-31T02:36:55;3.60;;;2.00;;
75535;SDS011;64119;52.070;20.804;2023-07-31T02:39:23;4.00;;;2.50;;
75535;SDS011;64119;52.070;20.804;2023-07-31T02:41:51;3.90;;;2.40;;
75535;SDS011;64119;52.070;20.804;2023-07-31T02:44:19;4.00;;;2.60;;
75535;SDS011;64119;52.070;20.804;2023-07-31T02:46:48;3.30;;;2.30;;
75535;SDS011;64119;52.070;20.804;2023-07-31T02:49:16;3.30;;;2.50;;
75535;SDS011;64119;52.070;20.804;2023-07-31T02:51:44;3.60;;;2.20;;
75535;SDS011;64119;52.070;20.804;2023-07-31T02:54:12;5.50;;;2.30;;
75535;SDS011;64119;52.070;20.804;2023-07-31T02:56:40;3.60;;;2.20;;
75535;SDS011;64119;52.070;20.804;2023-07-31T02:59:08;4.00;;;2.10;;
75535;SDS011;64119;52.070;20.804;2023-07-31T03:01:36;4.00;;;2.30;;
75535;SDS011;64119;52.070;20.804;2023-07-31T03:04:03;2.90;;;2.20;;
75535;SDS011;64119;52.070;20.804;2023-07-31T03:06:31;4.30;;;2.30;;
75535;SDS011;64119;52.070;20.804;2023-07-31T03:08:59;4.50;;;2.20;;
75535;SDS011;64119;52.070;20.804;2023-07-31T03:11:28;3.70;;;2.40;;
75535;SDS011;64119;52.070;20.804;2023-07-31T03:13:56;3.80;;;2.40;;
75535;SDS011;64119;52.070;20.804;2023-07-31T03:16:24;4.50;;;2.70;;
75535;SDS011;64119;52.070;20.804;2023-07-31T03:18:52;4.50;;;2.20;;
75535;SDS011;64119;52.070;20.804;2023-07-31T03:21:19;2.80;;;2.10;;
75535;SDS011;64119;52.070;20.804;2023-07-31T03:23:47;3.00;;;1.90;;
75535;SDS011;64119;52.070;20.804;2023-07-31T03:26:15;4.10;;;2.00;;
75535;SDS011;64119;52.070;20.804;2023-07-31T03:28:43;4.70;;;2.40;;
75535;SDS011;64119;52.070;20.804;2023-07-31T03:31:11;3.10;;;2.00;;
75535;SDS011;64119;52.070;20.804;2023-07-31T03:33:39;4.10;;;2.10;;
75535;SDS011;64119;52.070;20.804;2023-07-31T03:36:07;3.90;;;2.00;;
75535;SDS011;64119;52.070;20.804;2023-07-31T03:38:35;4.10;;;2.20;;
75535;SDS011;64119;52.070;20.804;2023-07-31T03:41:03;5.20;;;2.50;;
75535;SDS011;64119;52.070;20.804;2023-07-31T03:43:31;3.10;;;1.90;;
75535;SDS011;64119;52.070;20.804;2023-07-31T03:45:59;3.80;;;2.20;;
75535;SDS011;64119;52.070;20.804;2023-07-31T03:48:28;3.40;;;2.20;;
75535;SDS011;64119;52.070;20.804;2023-07-31T03:50:56;3.80;;;2.10;;
75535;SDS011;64119;52.070;20.804;2023-07-31T03:53:24;3.20;;;2.10;;
75535;SDS011;64119;52.070;20.804;2023-07-31T03:55:51;3.50;;;1.80;;
75535;SDS011;64119;52.070;20.804;2023-07-31T03:58:19;2.80;;;1.70;;
75535;SDS011;64119;52.070;20.804;2023-07-31T04:00:47;5.20;;;2.40;;
75535;SDS011;64119;52.070;20.804;2023-07-31T04:03:15;3.60;;;2.00;;
75535;SDS011;64119;52.070;20.804;2023-07-31T04:05:43;3.70;;;2.10;;
75535;SDS011;64119;52.070;20.804;2023-07-31T04:08:11;3.10;;;2.00;;
75535;SDS011;64119;52.070;20.804;2023-07-31T04:10:39;4.50;;;2.40;;
75535;SDS011;64119;52.070;20.804;2023-07-31T04:13:07;3.90;;;2.20;;
75535;SDS011;64119;52.070;20.804;2023-07-31T04:15:34;4.20;;;2.00;;
75535;SDS011;64119;52.070;20.804;2023-07-31T04:18:02;3.20;;;1.90;;
75535;SDS011;64119;52.070;20.804;2023-07-31T04:20:30;4.10;;;2.10;;
75535;SDS011;64119;52.070;20.804;2023-07-31T04:22:58;5.50;;;2.20;;
75535;SDS011;64119;52.070;20.804;2023-07-31T04:25:26;3.70;;;2.10;;
75535;SDS011;64119;52.070;20.804;2023-07-31T04:27:53;3.90;;;1.90;;
75535;SDS011;64119;52.070;20.804;2023-07-31T04:30:21;2.80;;;1.70;;
75535;SDS011;64119;52.070;20.804;2023-07-31T04:32:49;3.10;;;1.90;;
75535;SDS011;64119;52.070;20.804;2023-07-31T04:35:17;2.90;;;1.70;;
75535;SDS011;64119;52.070;20.804;2023-07-31T04:37:45;3.60;;;2.50;;
75535;SDS011;64119;52.070;20.804;2023-07-31T04:40:16;4.00;;;1.90;;
75535;SDS011;64119;52.070;20.804;2023-07-31T04:42:43;2.60;;;1.80;;
75535;SDS011;64119;52.070;20.804;2023-07-31T04:45:11;3.70;;;2.10;;
75535;SDS011;64119;52.070;20.804;2023-07-31T04:47:39;6.40;;;2.30;;
75535;SDS011;64119;52.070;20.804;2023-07-31T04:50:07;3.60;;;1.70;;
75535;SDS011;64119;52.070;20.804;2023-07-31T04:52:35;4.30;;;2.00;;
75535;SDS011;64119;52.070;20.804;2023-07-31T04:55:04;4.30;;;2.10;;
75535;SDS011;64119;52.070;20.804;2023-07-31T04:57:31;4.10;;;2.20;;
75535;SDS011;64119;52.070;20.804;2023-07-31T04:59:59;2.80;;;2.30;;
75535;SDS011;64119;52.070;20.804;2023-07-31T05:02:27;2.70;;;1.80;;
75535;SDS011;64119;52.070;20.804;2023-07-31T05:04:55;3.80;;;1.90;;
75535;SDS011;64119;52.070;20.804;2023-07-31T05:07:23;4.30;;;2.40;;
75535;SDS011;64119;52.070;20.804;2023-07-31T05:09:51;6.90;;;2.30;;
75535;SDS011;64119;52.070;20.804;2023-07-31T05:12:19;4.50;;;2.20;;
75535;SDS011;64119;52.070;20.804;2023-07-31T05:14:47;3.20;;;2.00;;
75535;SDS011;64119;52.070;20.804;2023-07-31T05:17:15;4.60;;;1.90;;
75535;SDS011;64119;52.070;20.804;2023-07-31T05:19:43;3.40;;;1.90;;
75535;SDS011;64119;52.070;20.804;2023-07-31T05:22:11;5.00;;;2.20;;
75535;SDS011;64119;52.070;20.804;2023-07-31T05:24:40;3.70;;;1.80;;
75535;SDS011;64119;52.070;20.804;2023-07-31T05:27:08;2.40;;;1.80;;
75535;SDS011;64119;52.070;20.804;2023-07-31T05:29:37;3.70;;;1.80;;
75535;SDS011;64119;52.070;20.804;2023-07-31T05:32:05;3.40;;;1.80;;
75535;SDS011;64119;52.070;20.804;2023-07-31T05:34:33;2.20;;;1.70;;
75535;SDS011;64119;52.070;20.804;2023-07-31T05:37:01;4.90;;;1.90;;
75535;SDS011;64119;52.070;20.804;2023-07-31T05:39:29;3.30;;;1.80;;
75535;SDS011;64119;52.070;20.804;2023-07-31T05:41:56;4.30;;;2.10;;
75535;SDS011;64119;52.070;20.804;2023-07-31T05:44:24;4.60;;;1.80;;
75535;SDS011;64119;52.070;20.804;2023-07-31T05:46:52;4.00;;;1.90;;
75535;SDS011;64119;52.070;20.804;2023-07-31T05:49:19;2.90;;;2.00;;
75535;SDS011;64119;52.070;20.804;2023-07-31T05:51:48;3.40;;;1.90;;
75535;SDS011;64119;52.070;20.804;2023-07-31T05:54:16;2.70;;;1.80;;
75535;SDS011;64119;52.070;20.804;2023-07-31T05:56:43;2.50;;;1.70;;
75535;SDS011;64119;52.070;20.804;2023-07-31T05:59:12;5.60;;;2.30;;
75535;SDS011;64119;52.070;20.804;2023-07-31T06:01:40;4.20;;;2.30;;
75535;SDS011;64119;52.070;20.804;2023-07-31T06:04:08;5.90;;;2.20;;
75535;SDS011;64119;52.070;20.804;2023-07-31T06:06:36;5.60;;;2.70;;
75535;SDS011;64119;52.070;20.804;2023-07-31T06:09:04;4.60;;;1.90;;
75535;SDS011;64119;52.070;20.804;2023-07-31T06:11:32;5.10;;;2.10;;
75535;SDS011;64119;52.070;20.804;2023-07-31T06:14:00;3.20;;;2.00;;
75535;SDS011;64119;52.070;20.804;2023-07-31T06:16:28;3.90;;;2.00;;
75535;SDS011;64119;52.070;20.804;2023-07-31T06:18:57;4.10;;;2.00;;
75535;SDS011;64119;52.070;20.804;2023-07-31T06:21:25;2.50;;;1.70;;
75535;SDS011;64119;52.070;20.804;2023-07-31T06:23:53;6.80;;;2.50;;
75535;SDS011;64119;52.070;20.804;2023-07-31T06:26:21;4.20;;;2.20;;
75535;SDS011;64119;52.070;20.804;2023-07-31T06:28:49;3.00;;;2.10;;
75535;SDS011;64119;52.070;20.804;2023-07-31T06:31:17;5.40;;;2.30;;
75535;SDS011;64119;52.070;20.804;2023-07-31T06:33:48;4.50;;;2.30;;
75535;SDS011;64119;52.070;20.804;2023-07-31T06:36:17;3.40;;;2.10;;
75535;SDS011;64119;52.070;20.804;2023-07-31T06:38:45;3.60;;;2.30;;
75535;SDS011;64119;52.070;20.804;2023-07-31T06:41:13;3.80;;;2.40;;
75535;SDS011;64119;52.070;20.804;2023-07-31T06:43:41;3.80;;;2.50;;
75535;SDS011;64119;52.070;20.804;2023-07-31T06:46:09;4.80;;;2.20;;
75535;SDS011;64119;52.070;20.804;2023-07-31T06:48:37;3.40;;;2.00;;
75535;SDS011;64119;52.070;20.804;2023-07-31T06:51:05;3.50;;;1.90;;
75535;SDS011;64119;52.070;20.804;2023-07-31T06:53:33;4.50;;;2.10;;
75535;SDS011;64119;52.070;20.804;2023-07-31T06:56:00;4.00;;;2.00;;
75535;SDS011;64119;52.070;20.804;2023-07-31T06:58:28;3.00;;;1.70;;
75535;SDS011;64119;52.070;20.804;2023-07-31T07:00:56;2.30;;;1.80;;
75535;SDS011;64119;52.070;20.804;2023-07-31T07:03:24;4.20;;;1.90;;
75535;SDS011;64119;52.070;20.804;2023-07-31T07:05:52;5.40;;;2.40;;
75535;SDS011;64119;52.070;20.804;2023-07-31T07:08:19;3.30;;;2.10;;
75535;SDS011;64119;52.070;20.804;2023-07-31T07:10:47;3.00;;;2.00;;
75535;SDS011;64119;52.070;20.804;2023-07-31T07:13:15;3.90;;;2.00;;
75535;SDS011;64119;52.070;20.804;2023-07-31T07:15:47;4.20;;;1.90;;
75535;SDS011;64119;52.070;20.804;2023-07-31T07:18:15;3.50;;;2.00;;
75535;SDS011;64119;52.070;20.804;2023-07-31T07:20:47;4.50;;;1.90;;
75535;SDS011;64119;52.070;20.804;2023-07-31T07:23:17;4.80;;;1.80;;
75535;SDS011;64119;52.070;20.804;2023-07-31T07:25:45;3.50;;;1.90;;
75535;SDS011;64119;52.070;20.804;2023-07-31T07:28:14;3.30;;;2.00;;
75535;SDS011;64119;52.070;20.804;2023-07-31T07:30:42;3.80;;;1.90;;
75535;SDS011;64119;52.070;20.804;2023-07-31T07:33:09;3.40;;;2.00;;
75535;SDS011;64119;52.070;20.804;2023-07-31T07:35:37;2.50;;;1.70;;
75535;SDS011;64119;52.070;20.804;2023-07-31T07:38:05;3.60;;;1.80;;
75535;SDS011;64119;52.070;20.804;2023-07-31T07:40:37;3.20;;;2.00;;
75535;SDS011;64119;52.070;20.804;2023-07-31T07:43:06;3.30;;;2.10;;
75535;SDS011;64119;52.070;20.804;2023-07-31T07:45:34;3.20;;;1.90;;
75535;SDS011;64119;52.070;20.804;2023-07-31T07:48:01;3.00;;;2.10;;
75535;SDS011;64119;52.070;20.804;2023-07-31T07:50:29;2.50;;;1.80;;
75535;SDS011;64119;52.070;20.804;2023-07-31T07:52:57;5.90;;;2.20;;
75535;SDS011;64119;52.070;20.804;2023-07-31T07:55:25;2.70;;;1.80;;
75535;SDS011;64119;52.070;20.804;2023-07-31T07:57:52;4.30;;;2.10;;
75535;SDS011;64119;52.070;20.804;2023-07-31T08:00:20;6.70;;;2.10;;
75535;SDS011;64119;52.070;20.804;2023-07-31T08:02:48;6.40;;;2.20;;
75535;SDS011;64119;52.070;20.804;2023-07-31T08:05:16;4.80;;;2.10;;
75535;SDS011;64119;52.070;20.804;2023-07-31T08:07:45;3.70;;;1.90;;
75535;SDS011;64119;52.070;20.804;2023-07-31T08:10:12;5.50;;;2.00;;
75535;SDS011;64119;52.070;20.804;2023-07-31T08:12:40;3.60;;;2.10;;
75535;SDS011;64119;52.070;20.804;2023-07-31T08:15:08;3.30;;;2.00;;
75535;SDS011;64119;52.070;20.804;2023-07-31T08:17:36;5.30;;;1.90;;
75535;SDS011;64119;52.070;20.804;2023-07-31T08:20:04;2.70;;;1.80;;
75535;SDS011;64119;52.070;20.804;2023-07-31T08:22:33;5.80;;;1.90;;
75535;SDS011;64119;52.070;20.804;2023-07-31T08:25:01;3.10;;;1.50;;
75535;SDS011;64119;52.070;20.804;2023-07-31T08:27:28;3.10;;;1.90;;
75535;SDS011;64119;52.070;20.804;2023-07-31T08:29:56;3.80;;;1.80;;
75535;SDS011;64119;52.070;20.804;2023-07-31T08:32:24;4.00;;;1.80;;
75535;SDS011;64119;52.070;20.804;2023-07-31T08:34:52;5.10;;;1.70;;
75535;SDS011;64119;52.070;20.804;2023-07-31T08:37:20;6.40;;;2.00;;
75535;SDS011;64119;52.070;20.804;2023-07-31T08:39:48;2.80;;;1.60;;
75535;SDS011;64119;52.070;20.804;2023-07-31T08:42:15;3.90;;;1.80;;
75535;SDS011;64119;52.070;20.804;2023-07-31T08:44:43;2.30;;;1.60;;
75535;SDS011;64119;52.070;20.804;2023-07-31T08:47:11;3.40;;;1.90;;
75535;SDS011;64119;52.070;20.804;2023-07-31T08:49:39;3.40;;;1.90;;
75535;SDS011;64119;52.070;20.804;2023-07-31T08:52:09;4.70;;;1.90;;
75535;SDS011;64119;52.070;20.804;2023-07-31T08:54:38;3.00;;;1.70;;
75535;SDS011;64119;52.070;20.804;2023-07-31T08:57:06;3.80;;;1.80;;
75535;SDS011;64119;52.070;20.804;2023-07-31T08:59:35;2.20;;;1.30;;
75535;SDS011;64119;52.070;20.804;2023-07-31T09:02:05;3.50;;;1.50;;
75535;SDS011;64119;52.070;20.804;2023-07-31T09:04:36;3.50;;;1.50;;
75535;SDS011;64119;52.070;20.804;2023-07-31T09:07:05;4.50;;;2.10;;
75535;SDS011;64119;52.070;20.804;2023-07-31T09:09:33;4.10;;;1.70;;
75535;SDS011;64119;52.070;20.804;2023-07-31T09:12:01;2.60;;;1.50;;
75535;SDS011;64119;52.070;20.804;2023-07-31T09:14:30;3.80;;;1.80;;
75535;SDS011;64119;52.070;20.804;2023-07-31T09:16:58;2.90;;;1.40;;
75535;SDS011;64119;52.070;20.804;2023-07-31T09:19:34;1.80;;;1.30;;
75535;SDS011;64119;52.070;20.804;2023-07-31T09:22:06;4.70;;;1.50;;
75535;SDS011;64119;52.070;20.804;2023-07-31T09:24:34;5.10;;;1.70;;
75535;SDS011;64119;52.070;20.804;2023-07-31T09:27:02;3.20;;;1.50;;
75535;SDS011;64119;52.070;20.804;2023-07-31T09:29:30;3.90;;;1.40;;
75535;SDS011;64119;52.070;20.804;2023-07-31T09:31:57;2.30;;;1.60;;
75535;SDS011;64119;52.070;20.804;2023-07-31T09:34:30;4.30;;;1.80;;
75535;SDS011;64119;52.070;20.804;2023-07-31T09:37:08;3.10;;;1.70;;
75535;SDS011;64119;52.070;20.804;2023-07-31T09:39:45;5.20;;;2.00;;
75535;SDS011;64119;52.070;20.804;2023-07-31T09:42:24;3.50;;;1.60;;
75535;SDS011;64119;52.070;20.804;2023-07-31T09:44:54;2.90;;;1.70;;
75535;SDS011;64119;52.070;20.804;2023-07-31T09:47:24;2.50;;;1.50;;
75535;SDS011;64119;52.070;20.804;2023-07-31T09:52:21;2.90;;;1.50;;
75535;SDS011;64119;52.070;20.804;2023-07-31T09:54:49;2.20;;;1.40;;
75535;SDS011;64119;52.070;20.804;2023-07-31T09:57:17;3.50;;;1.50;;
75535;SDS011;64119;52.070;20.804;2023-07-31T09:59:49;4.40;;;1.50;;
75535;SDS011;64119;52.070;20.804;2023-07-31T10:02:23;3.10;;;1.60;;
75535;SDS011;64119;52.070;20.804;2023-07-31T10:04:51;2.70;;;1.60;;
75535;SDS011;64119;52.070;20.804;2023-07-31T10:07:21;3.00;;;1.60;;
75535;SDS011;64119;52.070;20.804;2023-07-31T10:09:53;4.30;;;1.80;;
75535;SDS011;64119;52.070;20.804;2023-07-31T10:12:22;3.50;;;1.50;;
75535;SDS011;64119;52.070;20.804;2023-07-31T10:14:54;2.70;;;1.50;;
75535;SDS011;64119;52.070;20.804;2023-07-31T10:17:24;2.40;;;1.70;;
75535;SDS011;64119;52.070;20.804;2023-07-31T10:19:53;2.50;;;1.40;;
75535;SDS011;64119;52.070;20.804;2023-07-31T10:22:21;3.60;;;1.50;;
75535;SDS011;64119;52.070;20.804;2023-07-31T10:24:49;3.20;;;1.70;;
75535;SDS011;64119;52.070;20.804;2023-07-31T10:27:20;2.80;;;1.40;;
75535;SDS011;64119;52.070;20.804;2023-07-31T10:29:47;2.80;;;1.60;;
75535;SDS011;64119;52.070;20.804;2023-07-31T10:32:17;2.60;;;1.60;;
75535;SDS011;64119;52.070;20.804;2023-07-31T10:34:46;2.90;;;1.40;;
75535;SDS011;64119;52.070;20.804;2023-07-31T10:37:25;2.50;;;1.20;;
75535;SDS011;64119;52.070;20.804;2023-07-31T10:40:04;2.00;;;1.30;;
75535;SDS011;64119;52.070;20.804;2023-07-31T10:42:35;2.90;;;1.40;;
75535;SDS011;64119;52.070;20.804;2023-07-31T10:45:07;3.10;;;1.30;;
75535;SDS011;64119;52.070;20.804;2023-07-31T10:47:38;3.10;;;1.60;;
75535;SDS011;64119;52.070;20.804;2023-07-31T10:50:19;2.20;;;1.30;;
75535;SDS011;64119;52.070;20.804;2023-07-31T10:52:56;2.90;;;1.50;;
75535;SDS011;64119;52.070;20.804;2023-07-31T10:57:57;2.60;;;1.10;;
75535;SDS011;64119;52.070;20.804;2023-07-31T11:00:37;2.90;;;1.30;;
75535;SDS011;64119;52.070;20.804;2023-07-31T11:10:39;3.20;;;1.50;;
75535;SDS011;64119;52.070;20.804;2023-07-31T11:13:07;2.60;;;1.40;;
75535;SDS011;64119;52.070;20.804;2023-07-31T11:15:35;4.60;;;1.50;;
75535;SDS011;64119;52.070;20.804;2023-07-31T11:18:03;2.30;;;1.10;;
75535;SDS011;64119;52.070;20.804;2023-07-31T11:20:32;3.50;;;1.20;;
75535;SDS011;64119;52.070;20.804;2023-07-31T11:23:02;4.10;;;1.60;;
75535;SDS011;64119;52.070;20.804;2023-07-31T11:25:31;3.30;;;1.20;;
75535;SDS011;64119;52.070;20.804;2023-07-31T11:28:06;2.20;;;1.10;;
75535;SDS011;64119;52.070;20.804;2023-07-31T11:30:36;4.10;;;1.20;;
75535;SDS011;64119;52.070;20.804;2023-07-31T11:33:05;3.00;;;1.40;;
75535;SDS011;64119;52.070;20.804;2023-07-31T11:35:34;2.70;;;1.70;;
75535;SDS011;64119;52.070;20.804;2023-07-31T11:38:03;4.10;;;1.90;;
75535;SDS011;64119;52.070;20.804;2023-07-31T11:40:31;2.80;;;1.10;;
75535;SDS011;64119;52.070;20.804;2023-07-31T11:43:03;2.30;;;1.20;;
75535;SDS011;64119;52.070;20.804;2023-07-31T11:45:32;3.10;;;1.20;;
75535;SDS011;64119;52.070;20.804;2023-07-31T11:48:00;3.30;;;1.00;;
75535;SDS011;64119;52.070;20.804;2023-07-31T11:50:29;3.00;;;1.20;;
75535;SDS011;64119;52.070;20.804;2023-07-31T11:53:06;3.00;;;1.10;;
75535;SDS011;64119;52.070;20.804;2023-07-31T11:55:36;2.40;;;1.10;;
75535;SDS011;64119;52.070;20.804;2023-07-31T11:58:04;3.00;;;1.10;;
75535;SDS011;64119;52.070;20.804;2023-07-31T12:00:32;3.40;;;1.20;;
75535;SDS011;64119;52.070;20.804;2023-07-31T12:03:00;2.60;;;1.00;;
75535;SDS011;64119;52.070;20.804;2023-07-31T12:05:28;2.60;;;1.00;;
75535;SDS011;64119;52.070;20.804;2023-07-31T12:07:57;3.70;;;1.40;;
75535;SDS011;64119;52.070;20.804;2023-07-31T12:10:26;2.40;;;1.30;;
75535;SDS011;64119;52.070;20.804;2023-07-31T12:12:59;2.80;;;1.40;;
75535;SDS011;64119;52.070;20.804;2023-07-31T12:15:39;3.50;;;1.20;;
75535;SDS011;64119;52.070;20.804;2023-07-31T12:18:12;2.50;;;1.10;;
75535;SDS011;64119;52.070;20.804;2023-07-31T12:20:48;3.40;;;1.00;;
75535;SDS011;64119;52.070;20.804;2023-07-31T12:23:29;1.90;;;1.10;;
75535;SDS011;64119;52.070;20.804;2023-07-31T12:28:43;3.30;;;1.30;;
75535;SDS011;64119;52.070;20.804;2023-07-31T12:31:13;2.30;;;1.20;;
75535;SDS011;64119;52.070;20.804;2023-07-31T12:33:45;4.40;;;1.40;;
75535;SDS011;64119;52.070;20.804;2023-07-31T12:36:15;2.90;;;1.20;;
75535;SDS011;64119;52.070;20.804;2023-07-31T12:38:44;3.00;;;1.10;;
75535;SDS011;64119;52.070;20.804;2023-07-31T12:41:13;3.80;;;1.10;;
75535;SDS011;64119;52.070;20.804;2023-07-31T12:43:41;3.20;;;1.30;;
75535;SDS011;64119;52.070;20.804;2023-07-31T12:46:10;3.00;;;1.30;;
75535;SDS011;64119;52.070;20.804;2023-07-31T12:48:39;1.70;;;0.90;;
75535;SDS011;64119;52.070;20.804;2023-07-31T12:51:07;3.50;;;1.30;;
75535;SDS011;64119;52.070;20.804;2023-07-31T12:53:35;3.00;;;1.30;;
75535;SDS011;64119;52.070;20.804;2023-07-31T12:56:04;2.60;;;1.30;;
75535;SDS011;64119;52.070;20.804;2023-07-31T12:58:32;2.20;;;1.30;;
75535;SDS011;64119;52.070;20.804;2023-07-31T13:01:00;4.60;;;1.70;;
75535;SDS011;64119;52.070;20.804;2023-07-31T13:03:29;2.80;;;1.20;;
75535;SDS011;64119;52.070;20.804;2023-07-31T13:05:57;3.10;;;1.30;;
75535;SDS011;64119;52.070;20.804;2023-07-31T13:08:25;2.60;;;1.20;;
75535;SDS011;64119;52.070;20.804;2023-07-31T13:10:55;2.90;;;1.20;;
75535;SDS011;64119;52.070;20.804;2023-07-31T13:13:23;3.50;;;1.20;;
75535;SDS011;64119;52.070;20.804;2023-07-31T13:15:51;3.80;;;1.30;;
75535;SDS011;64119;52.070;20.804;2023-07-31T13:18:18;4.50;;;1.70;;
75535;SDS011;64119;52.070;20.804;2023-07-31T13:20:46;3.40;;;1.00;;
75535;SDS011;64119;52.070;20.804;2023-07-31T13:23:14;4.00;;;1.80;;
75535;SDS011;64119;52.070;20.804;2023-07-31T13:25:42;4.00;;;1.60;;
75535;SDS011;64119;52.070;20.804;2023-07-31T13:28:10;2.10;;;1.30;;
75535;SDS011;64119;52.070;20.804;2023-07-31T13:30:38;2.90;;;1.30;;
75535;SDS011;64119;52.070;20.804;2023-07-31T13:33:06;1.90;;;1.10;;
75535;SDS011;64119;52.070;20.804;2023-07-31T13:35:44;4.50;;;1.30;;
75535;SDS011;64119;52.070;20.804;2023-07-31T13:38:12;2.40;;;1.10;;
75535;SDS011;64119;52.070;20.804;2023-07-31T13:40:39;2.80;;;1.20;;
75535;SDS011;64119;52.070;20.804;2023-07-31T13:43:07;4.00;;;1.50;;
75535;SDS011;64119;52.070;20.804;2023-07-31T13:45:35;1.90;;;1.10;;
75535;SDS011;64119;52.070;20.804;2023-07-31T13:48:03;4.00;;;1.40;;
75535;SDS011;64119;52.070;20.804;2023-07-31T13:50:31;3.20;;;1.30;;
75535;SDS011;64119;52.070;20.804;2023-07-31T13:52:59;4.00;;;1.40;;
75535;SDS011;64119;52.070;20.804;2023-07-31T13:55:26;6.80;;;1.80;;
75535;SDS011;64119;52.070;20.804;2023-07-31T13:57:54;2.60;;;1.00;;
75535;SDS011;64119;52.070;20.804;2023-07-31T14:00:22;3.80;;;1.20;;
75535;SDS011;64119;52.070;20.804;2023-07-31T14:02:49;2.40;;;1.40;;
75535;SDS011;64119;52.070;20.804;2023-07-31T14:05:19;3.20;;;1.10;;
75535;SDS011;64119;52.070;20.804;2023-07-31T14:07:47;3.10;;;1.10;;
75535;SDS011;64119;52.070;20.804;2023-07-31T14:10:15;3.00;;;1.30;;
75535;SDS011;64119;52.070;20.804;2023-07-31T14:12:42;2.60;;;1.50;;
75535;SDS011;64119;52.070;20.804;2023-07-31T14:15:10;4.80;;;1.40;;
75535;SDS011;64119;52.070;20.804;2023-07-31T14:17:38;3.00;;;1.20;;
75535;SDS011;64119;52.070;20.804;2023-07-31T14:20:07;3.30;;;1.70;;
75535;SDS011;64119;52.070;20.804;2023-07-31T14:25:05;2.70;;;0.90;;
75535;SDS011;64119;52.070;20.804;2023-07-31T14:27:33;3.60;;;1.20;;
75535;SDS011;64119;52.070;20.804;2023-07-31T14:30:01;3.30;;;1.30;;
75535;SDS011;64119;52.070;20.804;2023-07-31T14:32:29;2.50;;;1.30;;
75535;SDS011;64119;52.070;20.804;2023-07-31T14:34:57;3.60;;;1.10;;
75535;SDS011;64119;52.070;20.804;2023-07-31T14:37:26;2.40;;;1.20;;
75535;SDS011;64119;52.070;20.804;2023-07-31T14:39:55;2.80;;;1.10;;
75535;SDS011;64119;52.070;20.804;2023-07-31T14:42:23;2.70;;;1.30;;
75535;SDS011;64119;52.070;20.804;2023-07-31T14:44:51;2.10;;;1.10;;
75535;SDS011;64119;52.070;20.804;2023-07-31T14:47:19;2.70;;;1.00;;
75535;SDS011;64119;52.070;20.804;2023-07-31T14:49:46;2.90;;;1.10;;
75535;SDS011;64119;52.070;20.804;2023-07-31T14:52:14;2.90;;;1.10;;
75535;SDS011;64119;52.070;20.804;2023-07-31T14:54:42;1.80;;;1.10;;
75535;SDS011;64119;52.070;20.804;2023-07-31T14:57:10;2.60;;;1.20;;
75535;SDS011;64119;52.070;20.804;2023-07-31T14:59:38;4.00;;;1.30;;
75535;SDS011;64119;52.070;20.804;2023-07-31T15:02:06;2.70;;;1.10;;
75535;SDS011;64119;52.070;20.804;2023-07-31T15:04:36;2.50;;;1.20;;
75535;SDS011;64119;52.070;20.804;2023-07-31T15:07:04;3.50;;;1.20;;
75535;SDS011;64119;52.070;20.804;2023-07-31T15:09:32;2.40;;;1.10;;